Time;durP1;ratioP1;P1;durP2;ratioP2;P2;SDS_P1;SDS_P2;PMS_P1;PMS_P2;Temp;Humidity;BMP_temperature;BMP_pressure;BME280_temperature;BME280_humidity;BME280_pressure;Samples;Min_cycle;Max_cycle;Signal;HPM_P1;HPM_P2
2023/07/11 00:00:06;;;;;;;8.23;3.83;;;19.00;99.90;;;;;;4922190;29;20458;-67
2023/07/11 00:02:32;;;;;;;8.80;4.00;;;18.90;99.90;;;;;;4933735;29;20039;-67
2023/07/11 00:04:58;;;;;;;5.45;3.60;;;18.90;99.90;;;;;;4934117;29;20044;-67
2023/07/11 00:07:25;;;;;;;6.90;3.97;;;18.80;99.90;;;;;;4922585;29;20055;-68
2023/07/11 00:09:51;;;;;;;8.10;4.10;;;18.80;99.90;;;;;;4926934;29;20043;-68
2023/07/11 00:12:17;;;;;;;6.40;3.50;;;18.80;99.90;;;;;;4933670;29;20096;-68
2023/07/11 00:14:43;;;;;;;7.38;3.88;;;18.70;99.90;;;;;;4925304;29;20927;-68
2023/07/11 00:17:09;;;;;;;7.90;4.20;;;18.70;99.90;;;;;;4914994;29;20035;-68
2023/07/11 00:19:47;;;;;;;8.23;4.10;;;18.80;99.90;;;;;;4923815;29;20044;-68
2023/07/11 00:22:13;;;;;;;10.23;4.20;;;18.70;99.90;;;;;;4929985;29;20047;-68
2023/07/11 00:24:39;;;;;;;6.15;4.22;;;18.70;99.90;;;;;;4930125;29;20042;-68
2023/07/11 00:27:04;;;;;;;9.68;4.40;;;18.60;99.90;;;;;;4918957;29;20619;-68
2023/07/11 00:29:30;;;;;;;8.85;4.50;;;18.60;99.90;;;;;;4909614;29;20052;-68
2023/07/11 00:31:56;;;;;;;8.00;4.47;;;18.50;99.90;;;;;;4909498;29;20047;-67
2023/07/11 00:34:22;;;;;;;12.43;4.20;;;18.50;99.90;;;;;;4919749;29;20096;-66
2023/07/11 00:36:47;;;;;;;10.38;4.35;;;18.50;99.90;;;;;;4920030;29;20055;-67
2023/07/11 00:39:15;;;;;;;7.28;4.20;;;18.50;99.90;;;;;;4907095;29;20044;-66
2023/07/11 00:41:42;;;;;;;7.88;4.47;;;18.50;99.90;;;;;;4918160;29;20040;-66
2023/07/11 00:44:15;;;;;;;6.00;4.50;;;18.60;99.90;;;;;;4919012;29;20047;-66
2023/07/11 00:46:42;;;;;;;8.27;4.50;;;18.50;99.90;;;;;;4905957;29;20056;-66
2023/07/11 00:49:10;;;;;;;7.20;4.45;;;18.60;99.90;;;;;;4912030;29;20044;-66
2023/07/11 00:51:41;;;;;;;6.63;4.35;;;18.50;99.90;;;;;;4925514;29;20039;-66
2023/07/11 00:54:12;;;;;;;9.32;5.25;;;18.50;99.90;;;;;;4934042;29;20039;-66
2023/07/11 00:56:43;;;;;;;11.38;4.75;;;18.50;99.90;;;;;;4920775;29;20050;-67
2023/07/11 00:59:09;;;;;;;9.05;4.47;;;18.40;99.90;;;;;;4921554;29;20078;-67
2023/07/11 01:01:35;;;;;;;9.00;4.60;;;18.40;99.90;;;;;;4920102;29;20043;-66
2023/07/11 01:04:03;;;;;;;10.52;4.88;;;18.40;99.90;;;;;;4920571;29;20559;-67
2023/07/11 01:06:30;;;;;;;8.95;4.65;;;18.40;99.90;;;;;;4919762;29;20533;-67
2023/07/11 01:08:57;;;;;;;10.88;5.20;;;18.30;99.90;;;;;;4936398;29;20043;-68
2023/07/11 01:11:27;;;;;;;11.27;5.10;;;18.30;99.90;;;;;;4931111;29;20067;-68
2023/07/11 01:13:53;;;;;;;8.65;4.32;;;18.30;99.90;;;;;;4926978;29;20533;-67
2023/07/11 01:16:20;;;;;;;9.73;5.18;;;18.30;99.90;;;;;;4937916;29;20039;-67
2023/07/11 01:18:46;;;;;;;8.05;4.70;;;18.30;99.90;;;;;;4926729;29;20048;-68
2023/07/11 01:21:19;;;;;;;11.90;5.50;;;18.30;99.90;;;;;;4916361;29;20040;-68
2023/07/11 01:23:46;;;;;;;9.88;4.57;;;18.30;99.90;;;;;;4936177;29;20047;-68
2023/07/11 01:26:11;;;;;;;12.07;5.07;;;18.30;99.90;;;;;;4939077;28;20098;-68
2023/07/11 01:28:39;;;;;;;10.00;4.93;;;18.20;99.90;;;;;;4936467;29;20114;-68
2023/07/11 01:31:05;;;;;;;9.98;4.85;;;18.20;99.90;;;;;;4915543;29;20561;-65
2023/07/11 01:33:31;;;;;;;10.38;4.88;;;18.20;99.90;;;;;;4932499;29;20043;-68
2023/07/11 01:35:56;;;;;;;9.20;4.68;;;18.10;99.90;;;;;;4921657;28;20092;-68
2023/07/11 01:38:24;;;;;;;11.60;5.10;;;18.10;99.90;;;;;;4920073;29;20127;-68
2023/07/11 01:40:50;;;;;;;9.13;4.80;;;18.10;99.90;;;;;;4920805;29;20123;-68
2023/07/11 01:43:19;;;;;;;11.52;5.10;;;18.10;99.90;;;;;;4930743;29;20044;-69
2023/07/11 01:45:44;;;;;;;11.20;5.03;;;18.10;99.90;;;;;;4930881;29;20048;-68
2023/07/11 01:48:10;;;;;;;12.07;5.30;;;18.00;99.90;;;;;;4924383;29;20039;-68
2023/07/11 01:50:36;;;;;;;9.82;5.30;;;18.00;99.90;;;;;;4932466;29;20517;-67
2023/07/11 01:53:02;;;;;;;9.00;4.78;;;18.00;99.90;;;;;;4919578;29;20040;-66
2023/07/11 01:55:28;;;;;;;9.70;5.40;;;18.00;99.90;;;;;;4929100;29;20094;-66
2023/07/11 01:57:53;;;;;;;10.18;5.65;;;18.00;99.90;;;;;;4914468;29;20044;-66
2023/07/11 02:00:19;;;;;;;9.57;5.57;;;18.00;99.90;;;;;;4920813;29;20114;-67
2023/07/11 02:02:45;;;;;;;13.00;5.85;;;18.00;99.90;;;;;;4910689;29;20073;-67
2023/07/11 02:05:10;;;;;;;9.07;5.80;;;18.00;99.90;;;;;;4916778;29;20078;-66
2023/07/11 02:07:36;;;;;;;13.32;5.90;;;18.00;99.90;;;;;;4912302;29;20028;-66
2023/07/11 02:10:02;;;;;;;12.65;5.85;;;18.00;99.90;;;;;;4915427;29;20068;-67
2023/07/11 02:12:27;;;;;;;9.95;6.20;;;18.00;99.90;;;;;;4913412;29;20117;-66
2023/07/11 02:14:53;;;;;;;11.05;5.95;;;18.00;99.90;;;;;;4922459;29;20062;-66
2023/07/11 02:17:18;;;;;;;11.10;5.80;;;18.00;99.90;;;;;;4925541;29;20398;-67
2023/07/11 02:19:44;;;;;;;10.90;5.88;;;18.00;99.90;;;;;;4917688;29;20036;-66
2023/07/11 02:22:11;;;;;;;9.10;5.63;;;18.00;99.90;;;;;;4924142;29;20051;-66
2023/07/11 02:24:39;;;;;;;8.95;5.65;;;18.10;99.90;;;;;;4927753;29;20058;-68
2023/07/11 02:27:04;;;;;;;10.85;6.03;;;18.10;99.90;;;;;;4928267;29;20043;-68
2023/07/11 02:29:30;;;;;;;9.02;5.63;;;18.10;99.90;;;;;;4923794;29;20376;-67
2023/07/11 02:31:56;;;;;;;8.70;5.93;;;18.10;99.90;;;;;;4935440;29;20510;-68
2023/07/11 02:34:21;;;;;;;10.32;6.10;;;18.10;99.90;;;;;;4934069;29;20047;-67
2023/07/11 02:36:47;;;;;;;12.98;6.10;;;18.10;99.90;;;;;;4925066;29;20189;-66
2023/07/11 02:39:13;;;;;;;10.10;6.10;;;18.20;99.90;;;;;;4930988;29;20035;-66
2023/07/11 02:41:38;;;;;;;11.88;5.82;;;18.10;99.90;;;;;;4915689;29;20039;-66
2023/07/11 02:44:04;;;;;;;12.40;6.32;;;18.10;99.90;;;;;;4920926;29;20880;-66
2023/07/11 02:46:30;;;;;;;10.48;6.32;;;18.10;99.90;;;;;;4913860;29;20035;-66
2023/07/11 02:48:56;;;;;;;10.50;5.90;;;18.10;99.90;;;;;;4918746;29;20044;-65
2023/07/11 02:51:23;;;;;;;10.77;6.40;;;18.10;99.90;;;;;;4918089;29;20111;-65
2023/07/11 02:53:48;;;;;;;10.93;6.07;;;18.10;99.90;;;;;;4921556;29;20146;-67
2023/07/11 02:56:15;;;;;;;10.57;6.20;;;18.00;99.90;;;;;;4917160;29;20568;-66
2023/07/11 02:58:41;;;;;;;9.63;6.03;;;18.10;99.90;;;;;;4914060;29;20084;-67
2023/07/11 03:01:07;;;;;;;11.27;6.30;;;18.10;99.90;;;;;;4920829;29;20076;-65
2023/07/11 03:03:33;;;;;;;14.43;6.63;;;18.00;99.90;;;;;;4932795;29;20054;-67
2023/07/11 03:05:58;;;;;;;10.43;6.07;;;18.00;99.90;;;;;;4931988;29;20039;-68
2023/07/11 03:08:24;;;;;;;8.88;6.00;;;17.90;99.90;;;;;;4933576;29;20083;-67
2023/07/11 03:10:50;;;;;;;9.52;6.65;;;18.00;99.90;;;;;;4923613;29;20451;-67
2023/07/11 03:13:15;;;;;;;10.73;6.80;;;17.90;99.90;;;;;;4917426;29;20107;-67
2023/07/11 03:15:41;;;;;;;10.38;6.75;;;17.90;99.90;;;;;;4916155;29;20388;-66
2023/07/11 03:18:07;;;;;;;10.35;6.18;;;17.90;99.90;;;;;;4911401;29;20131;-67
2023/07/11 03:20:38;;;;;;;10.85;6.50;;;17.90;99.90;;;;;;4918594;29;20035;-67
2023/07/11 03:23:04;;;;;;;11.52;6.40;;;17.80;99.90;;;;;;4914050;29;20044;-68
2023/07/11 03:25:30;;;;;;;9.93;6.28;;;17.80;99.90;;;;;;4910405;29;20052;-68
2023/07/11 03:27:55;;;;;;;12.27;6.60;;;17.80;99.90;;;;;;4924882;29;20052;-66
2023/07/11 03:30:21;;;;;;;16.00;7.03;;;17.80;99.90;;;;;;4924103;29;20092;-66
2023/07/11 03:32:46;;;;;;;9.55;6.70;;;17.80;99.90;;;;;;4914974;29;20107;-67
2023/07/11 03:35:12;;;;;;;14.80;6.80;;;17.80;99.90;;;;;;4914346;29;20072;-67
2023/07/11 03:37:38;;;;;;;9.15;6.80;;;17.80;99.90;;;;;;4919687;29;20100;-67
2023/07/11 03:40:04;;;;;;;11.43;6.78;;;17.80;99.90;;;;;;4933105;29;20068;-69
2023/07/11 03:42:29;;;;;;;11.02;6.82;;;17.80;99.90;;;;;;4909954;29;20043;-68
2023/07/11 03:44:55;;;;;;;11.98;7.15;;;17.70;99.90;;;;;;4913439;29;20044;-68
2023/07/11 03:47:21;;;;;;;11.07;6.82;;;17.80;99.90;;;;;;4918771;29;20062;-65
2023/07/11 03:49:46;;;;;;;12.45;7.22;;;17.80;99.90;;;;;;4913353;29;20047;-67
2023/07/11 03:52:12;;;;;;;10.73;6.75;;;17.80;99.90;;;;;;4916241;29;21142;-69
2023/07/11 03:54:37;;;;;;;10.77;6.32;;;17.80;99.90;;;;;;4922190;29;20046;-69
2023/07/11 03:57:03;;;;;;;12.75;6.50;;;17.80;99.90;;;;;;4925702;29;20047;-69
2023/07/11 03:59:30;;;;;;;11.18;6.57;;;17.80;99.90;;;;;;4922504;29;20036;-67
2023/07/11 04:01:56;;;;;;;10.00;7.18;;;17.80;99.90;;;;;;4928594;29;20557;-67
2023/07/11 04:04:22;;;;;;;10.75;6.88;;;17.90;99.90;;;;;;4921940;29;20044;-67
2023/07/11 04:06:47;;;;;;;10.60;6.97;;;17.90;99.90;;;;;;4915387;29;20048;-66
2023/07/11 04:09:13;;;;;;;11.15;7.38;;;17.90;99.90;;;;;;4920264;29;20071;-67
2023/07/11 04:11:38;;;;;;;11.13;7.22;;;17.90;99.90;;;;;;4922514;29;20780;-68
2023/07/11 04:14:04;;;;;;;14.77;7.15;;;18.00;99.90;;;;;;4929011;29;20072;-68
2023/07/11 04:16:30;;;;;;;9.30;7.00;;;18.00;99.90;;;;;;4924166;29;20040;-68
2023/07/11 04:18:56;;;;;;;11.57;7.32;;;17.90;99.90;;;;;;4923672;29;20067;-67
2023/07/11 04:21:21;;;;;;;12.25;7.47;;;18.00;99.90;;;;;;4933508;29;20122;-67
2023/07/11 04:23:47;;;;;;;10.98;7.10;;;18.00;99.90;;;;;;4934145;29;20044;-67
2023/07/11 04:26:13;;;;;;;12.40;7.25;;;18.00;99.90;;;;;;4925706;29;20443;-67
2023/07/11 04:28:39;;;;;;;9.32;7.10;;;18.10;99.90;;;;;;4933539;29;20039;-66
2023/07/11 04:31:04;;;;;;;11.63;7.18;;;18.00;99.90;;;;;;4929276;29;20094;-67
2023/07/11 04:33:30;;;;;;;10.73;7.32;;;18.00;99.90;;;;;;4920284;29;20083;-66
2023/07/11 04:36:06;;;;;;;11.55;7.38;;;18.10;99.90;;;;;;4918405;29;20569;-66
2023/07/11 04:38:32;;;;;;;11.15;7.25;;;18.10;99.90;;;;;;4925040;29;20044;-67
2023/07/11 04:41:02;;;;;;;12.48;7.38;;;18.10;99.90;;;;;;4915088;29;20036;-67
2023/07/11 04:43:29;;;;;;;11.27;7.40;;;18.20;99.90;;;;;;4915011;29;20051;-66
2023/07/11 04:45:56;;;;;;;10.00;7.75;;;18.20;99.90;;;;;;4920987;29;20135;-67
2023/07/11 04:48:22;;;;;;;11.20;7.95;;;18.30;99.90;;;;;;4909366;29;20071;-67
2023/07/11 04:50:47;;;;;;;11.07;7.30;;;18.30;99.90;;;;;;4915418;29;20055;-67
2023/07/11 04:53:13;;;;;;;10.35;7.68;;;18.30;99.90;;;;;;4912546;29;20777;-67
2023/07/11 04:55:39;;;;;;;9.95;6.88;;;18.30;99.90;;;;;;4924598;29;20075;-67
2023/07/11 04:58:04;;;;;;;10.38;6.72;;;18.30;99.90;;;;;;4915252;29;20048;-66
2023/07/11 05:00:30;;;;;;;13.88;8.43;;;18.30;99.90;;;;;;4906903;29;20035;-69
2023/07/11 05:02:55;;;;;;;11.32;8.07;;;18.30;99.90;;;;;;4926725;29;20071;-67
2023/07/11 05:05:22;;;;;;;9.65;7.65;;;18.30;99.90;;;;;;4933389;29;20118;-69
2023/07/11 05:07:48;;;;;;;12.00;8.18;;;18.30;99.90;;;;;;4928492;29;20040;-67
2023/07/11 05:10:13;;;;;;;13.27;8.68;;;18.20;99.90;;;;;;4931485;29;20035;-67
2023/07/11 05:12:40;;;;;;;9.77;7.88;;;18.30;99.90;;;;;;4928718;29;20615;-68
2023/07/11 05:15:06;;;;;;;11.60;7.63;;;18.30;99.90;;;;;;4924777;29;20163;-67
2023/07/11 05:17:31;;;;;;;9.73;7.80;;;18.30;99.90;;;;;;4929220;29;20035;-67
2023/07/11 05:19:57;;;;;;;11.00;8.23;;;18.40;99.90;;;;;;4931797;29;20044;-66
2023/07/11 05:22:24;;;;;;;19.60;8.93;;;18.50;99.90;;;;;;4925863;29;20036;-67
2023/07/11 05:24:50;;;;;;;12.18;8.68;;;18.70;99.90;;;;;;4927348;29;20051;-67
2023/07/11 05:27:15;;;;;;;12.52;9.00;;;18.80;99.90;;;;;;4932928;29;20050;-68
2023/07/11 05:29:41;;;;;;;13.77;8.73;;;19.00;99.90;;;;;;4930611;29;20703;-68
2023/07/11 05:32:07;;;;;;;14.02;8.25;;;19.10;99.90;;;;;;4918112;29;20051;-68
2023/07/11 05:34:32;;;;;;;13.63;8.65;;;19.20;99.90;;;;;;4930730;29;20474;-68
2023/07/11 05:36:58;;;;;;;13.30;7.70;;;19.30;99.90;;;;;;4917354;29;20051;-66
2023/07/11 05:39:23;;;;;;;13.70;8.20;;;19.30;99.90;;;;;;4913943;29;20849;-68
2023/07/11 05:41:51;;;;;;;10.27;7.82;;;19.40;99.90;;;;;;4926533;28;20119;-68
2023/07/11 05:44:18;;;;;;;15.68;8.90;;;19.40;99.90;;;;;;4930664;29;20032;-68
2023/07/11 05:46:43;;;;;;;13.38;7.75;;;19.50;99.90;;;;;;4933505;29;20040;-68
2023/07/11 05:49:09;;;;;;;10.27;7.53;;;19.70;99.90;;;;;;4919623;29;20040;-67
2023/07/11 05:51:35;;;;;;;11.80;7.32;;;19.90;99.90;;;;;;4922448;29;20450;-68
2023/07/11 05:54:01;;;;;;;14.40;7.43;;;20.10;99.90;;;;;;4936045;29;20111;-67
2023/07/11 05:56:27;;;;;;;11.10;7.70;;;20.30;99.90;;;;;;4931911;29;20074;-67
2023/07/11 05:58:53;;;;;;;11.93;7.70;;;20.30;99.90;;;;;;4918463;29;20035;-68
2023/07/11 06:01:22;;;;;;;14.23;8.07;;;20.40;99.90;;;;;;4929195;29;20095;-66
2023/07/11 06:04:02;;;;;;;11.57;7.78;;;20.40;99.90;;;;;;4925052;28;20142;-68
2023/07/11 06:06:27;;;;;;;15.02;7.63;;;20.40;99.90;;;;;;4915121;29;20723;-67
2023/07/11 06:08:53;;;;;;;11.50;7.72;;;20.60;99.90;;;;;;4916212;29;20043;-67
2023/07/11 06:11:19;;;;;;;11.95;7.05;;;20.70;99.90;;;;;;4915344;29;20035;-66
2023/07/11 06:13:44;;;;;;;14.82;7.45;;;20.80;99.90;;;;;;4914296;29;20048;-67
2023/07/11 06:16:15;;;;;;;13.98;7.47;;;21.00;99.90;;;;;;4915494;29;20040;-63
2023/07/11 06:18:41;;;;;;;10.38;6.85;;;21.10;99.90;;;;;;4925279;29;20044;-62
2023/07/11 06:21:08;;;;;;;12.30;7.10;;;21.20;99.90;;;;;;4930891;29;20039;-62
2023/07/11 06:23:34;;;;;;;15.38;7.28;;;21.30;99.90;;;;;;4927926;29;20040;-63
2023/07/11 06:26:00;;;;;;;9.82;7.15;;;21.30;99.90;;;;;;4927857;29;20046;-65
2023/07/11 06:28:26;;;;;;;9.38;7.40;;;21.30;99.90;;;;;;4923035;29;20040;-65
2023/07/11 06:30:56;;;;;;;10.85;7.38;;;21.50;99.90;;;;;;4922156;29;20088;-67
2023/07/11 06:33:22;;;;;;;10.90;6.80;;;21.50;99.90;;;;;;4925197;29;20503;-66
2023/07/11 06:35:49;;;;;;;14.00;7.05;;;21.50;99.90;;;;;;4926711;29;20050;-69
2023/07/11 06:38:16;;;;;;;12.25;6.70;;;21.50;99.90;;;;;;4915773;29;20048;-70
2023/07/11 06:40:50;;;;;;;14.55;7.10;;;21.50;99.90;;;;;;4931330;29;20075;-70
2023/07/11 06:43:17;;;;;;;10.68;6.75;;;21.50;99.90;;;;;;4928452;29;20048;-70
2023/07/11 06:45:45;;;;;;;13.32;7.00;;;21.40;99.90;;;;;;4908878;29;20486;-70
2023/07/11 06:48:11;;;;;;;10.48;7.40;;;21.50;99.90;;;;;;4919391;29;20050;-71
2023/07/11 06:50:37;;;;;;;10.88;7.00;;;21.60;99.90;;;;;;4923796;29;20114;-70
2023/07/11 06:53:02;;;;;;;13.25;6.65;;;21.70;99.90;;;;;;4933272;29;20126;-70
2023/07/11 06:55:30;;;;;;;11.15;7.18;;;21.70;99.90;;;;;;4934349;29;20032;-71
2023/07/11 06:57:55;;;;;;;12.48;6.90;;;21.80;99.90;;;;;;4927890;29;20392;-71
2023/07/11 07:00:21;;;;;;;11.40;7.03;;;21.80;99.90;;;;;;4931154;29;20047;-71
2023/07/11 07:02:46;;;;;;;11.85;7.10;;;21.80;99.90;;;;;;4912711;29;20159;-71
2023/07/11 07:05:12;;;;;;;11.02;6.72;;;21.80;99.90;;;;;;4924209;29;20390;-70
2023/07/11 07:07:38;;;;;;;8.90;6.47;;;21.90;99.90;;;;;;4933503;29;20082;-71
2023/07/11 07:10:03;;;;;;;13.02;6.43;;;22.20;99.90;;;;;;4928346;29;20097;-71
2023/07/11 07:12:29;;;;;;;10.25;6.40;;;22.50;99.90;;;;;;4925179;29;20047;-71
2023/07/11 07:14:55;;;;;;;9.38;6.18;;;22.80;99.90;;;;;;4936024;29;20158;-67
2023/07/11 07:17:20;;;;;;;12.63;5.50;;;23.00;99.90;;;;;;4942463;29;20491;-67
2023/07/11 07:19:46;;;;;;;9.45;5.18;;;23.10;99.90;;;;;;4918376;29;20044;-66
2023/07/11 07:22:11;;;;;;;7.15;5.15;;;23.20;99.90;;;;;;4933089;28;20043;-67
2023/07/11 07:24:37;;;;;;;8.10;5.43;;;23.20;99.90;;;;;;4919269;29;20039;-67
2023/07/11 07:27:03;;;;;;;7.65;4.90;;;23.30;99.90;;;;;;4926666;29;20066;-68
2023/07/11 07:29:28;;;;;;;7.68;5.20;;;23.20;99.90;;;;;;4923394;29;20670;-67
2023/07/11 07:31:54;;;;;;;7.63;4.82;;;23.20;99.90;;;;;;4929060;29;20044;-68
2023/07/11 07:34:20;;;;;;;7.90;5.22;;;23.10;99.90;;;;;;4925564;29;20044;-65
2023/07/11 07:36:45;;;;;;;9.70;5.45;;;23.10;99.90;;;;;;4923766;29;20530;-66
2023/07/11 07:39:11;;;;;;;7.63;5.00;;;23.20;99.90;;;;;;4924949;29;20039;-65
2023/07/11 07:41:36;;;;;;;13.05;5.80;;;23.10;99.90;;;;;;4930727;29;20039;-66
2023/07/11 07:44:02;;;;;;;6.85;5.15;;;23.20;99.90;;;;;;4928697;29;20104;-64
2023/07/11 07:46:28;;;;;;;8.57;5.22;;;23.40;99.90;;;;;;4920844;29;20044;-65
2023/07/11 07:48:53;;;;;;;12.85;5.30;;;23.70;99.90;;;;;;4917451;29;20048;-66
2023/07/11 07:51:19;;;;;;;10.45;4.95;;;23.80;99.90;;;;;;4921777;29;20399;-66
2023/07/11 07:53:45;;;;;;;10.80;5.10;;;24.10;99.90;;;;;;4921370;29;20044;-70
2023/07/11 07:56:15;;;;;;;9.32;4.38;;;24.20;99.90;;;;;;4924098;29;20039;-69
2023/07/11 07:58:40;;;;;;;13.63;4.65;;;24.30;99.90;;;;;;4930635;29;20715;-69
2023/07/11 08:01:07;;;;;;;10.20;4.90;;;24.30;99.90;;;;;;4933168;29;20134;-69
2023/07/11 08:03:33;;;;;;;7.45;4.50;;;24.50;99.90;;;;;;4921639;29;20073;-69
2023/07/11 08:05:59;;;;;;;6.35;4.28;;;24.50;99.90;;;;;;4931615;29;20051;-69
2023/07/11 08:08:25;;;;;;;11.60;4.82;;;24.50;99.90;;;;;;4932719;29;20380;-70
2023/07/11 08:10:51;;;;;;;9.07;4.28;;;24.60;99.90;;;;;;4925896;29;20031;-70
2023/07/11 08:13:16;;;;;;;9.10;4.45;;;24.70;99.90;;;;;;4953729;29;20536;-69
2023/07/11 08:15:42;;;;;;;8.57;3.83;;;24.80;99.90;;;;;;4949378;29;20122;-69
2023/07/11 08:18:09;;;;;;;7.13;3.83;;;24.80;99.90;;;;;;4932435;28;20044;-69
2023/07/11 08:20:34;;;;;;;5.90;4.15;;;24.80;99.90;;;;;;4925526;28;20081;-69
2023/07/11 08:23:00;;;;;;;8.45;4.10;;;24.80;99.90;;;;;;4934750;29;20495;-69
2023/07/11 08:25:27;;;;;;;9.88;3.90;;;24.90;99.90;;;;;;4935565;29;20466;-69
2023/07/11 08:27:53;;;;;;;8.07;3.90;;;24.90;99.90;;;;;;4923283;29;20444;-70
2023/07/11 08:30:19;;;;;;;8.32;4.10;;;24.90;99.90;;;;;;4934427;29;20052;-69
2023/07/11 08:32:45;;;;;;;7.32;4.22;;;25.00;99.90;;;;;;4937788;29;20525;-69
2023/07/11 08:35:11;;;;;;;11.10;4.18;;;25.00;99.90;;;;;;4934497;29;20040;-69
2023/07/11 08:37:37;;;;;;;7.63;4.20;;;25.20;99.90;;;;;;4927667;29;20047;-69
2023/07/11 08:40:03;;;;;;;14.75;4.38;;;25.30;99.90;;;;;;4924161;29;20047;-69
2023/07/11 08:42:40;;;;;;;6.45;3.90;;;25.40;99.90;;;;;;4925118;29;20645;-68
2023/07/11 08:45:14;;;;;;;6.55;3.70;;;25.60;99.90;;;;;;4926721;29;20055;-68
2023/07/11 08:47:45;;;;;;;7.20;4.00;;;25.60;99.20;;;;;;4929773;29;20047;-69
2023/07/11 08:50:13;;;;;;;;;;;25.70;99.90;;;;;;4938145;29;20443;-68
2023/07/11 08:52:41;;;;;;;5.55;3.50;;;25.70;98.30;;;;;;4930934;29;19926;-69
2023/07/11 08:55:16;;;;;;;6.60;3.55;;;25.80;99.30;;;;;;4928337;29;20044;-69
2023/07/11 08:57:50;;;;;;;5.85;3.67;;;25.80;99.40;;;;;;4930475;29;20509;-68
2023/07/11 09:00:18;;;;;;;7.65;3.50;;;26.00;99.10;;;;;;4924975;29;20044;-68
2023/07/11 09:03:07;;;;;;;8.55;3.78;;;26.00;98.50;;;;;;4936626;29;20419;-68
2023/07/11 09:06:08;;;;;;;7.25;3.40;;;26.10;97.10;;;;;;4937535;29;20051;-68
2023/07/11 09:08:41;;;;;;;10.25;3.95;;;26.20;97.50;;;;;;4924141;29;20056;-68
2023/07/11 09:11:34;;;;;;;7.90;4.05;;;26.20;98.60;;;;;;4925865;29;20574;-69
2023/07/11 09:14:15;;;;;;;5.47;3.58;;;26.50;99.20;;;;;;4932776;29;20113;-68
2023/07/11 09:16:53;;;;;;;9.10;3.95;;;26.60;98.40;;;;;;4926128;29;20039;-68
2023/07/11 09:19:53;;;;;;;6.30;3.65;;;26.70;98.20;;;;;;4929799;29;20043;-68
2023/07/11 09:22:27;;;;;;;7.17;3.53;;;26.90;98.70;;;;;;4936901;29;20099;-68
2023/07/11 09:25:00;;;;;;;11.98;4.10;;;27.00;98.80;;;;;;4926248;29;20103;-68
2023/07/11 09:27:37;;;;;;;7.05;3.75;;;27.10;98.10;;;;;;4936085;29;20461;-68
2023/07/11 09:30:22;;;;;;;8.57;4.00;;;27.10;97.70;;;;;;4929936;29;20051;-68
2023/07/11 09:32:48;;;;;;;7.70;3.40;;;27.20;97.90;;;;;;4918353;29;20039;-69
2023/07/11 09:35:28;;;;;;;6.72;3.17;;;27.30;97.80;;;;;;4915983;29;20111;-68
2023/07/11 09:38:03;;;;;;;5.97;3.60;;;27.20;95.90;;;;;;4930604;29;20573;-68
2023/07/11 09:40:45;;;;;;;7.13;3.30;;;27.20;96.30;;;;;;4922732;29;20035;-69
2023/07/11 09:43:10;;;;;;;7.10;3.20;;;27.20;95.70;;;;;;4933551;29;20044;-68
2023/07/11 09:45:41;;;;;;;5.65;2.75;;;27.20;95.10;;;;;;4936634;29;20039;-69
2023/07/11 09:48:27;;;;;;;;;;;27.20;93.80;;;;;;4930074;29;20040;-68
2023/07/11 09:51:01;;;;;;;4.40;2.40;;;27.10;90.50;;;;;;4922671;29;19918;-69
2023/07/11 09:53:29;;;;;;;5.13;2.78;;;27.10;89.90;;;;;;4936122;29;20040;-68
2023/07/11 09:56:03;;;;;;;5.90;2.85;;;27.10;92.10;;;;;;4936845;29;20036;-68
2023/07/11 09:58:33;;;;;;;7.10;3.10;;;27.10;92.00;;;;;;4929607;29;20476;-68
2023/07/11 10:01:04;;;;;;;5.05;2.70;;;27.20;92.20;;;;;;4930247;29;20043;-68
2023/07/11 10:03:35;;;;;;;7.90;2.97;;;27.20;91.60;;;;;;4935741;29;20092;-68
2023/07/11 10:06:02;;;;;;;;;;;27.30;92.10;;;;;;4927018;29;20127;-68
2023/07/11 10:08:34;;;;;;;5.70;2.70;;;27.20;91.10;;;;;;4924762;29;19926;-68
2023/07/11 10:11:05;;;;;;;7.68;3.20;;;27.40;91.20;;;;;;4935814;29;20044;-68
2023/07/11 10:13:31;;;;;;;6.80;2.70;;;27.40;87.40;;;;;;4936173;29;20051;-68
2023/07/11 10:15:58;;;;;;;8.73;2.83;;;27.40;91.10;;;;;;4924675;29;20412;-68
2023/07/11 10:18:27;;;;;;;5.43;2.60;;;27.50;90.30;;;;;;4930240;29;20039;-67
2023/07/11 10:21:00;;;;;;;5.75;2.60;;;27.50;89.90;;;;;;4935825;29;20043;-68
2023/07/11 10:23:27;;;;;;;7.78;2.90;;;27.50;90.40;;;;;;4921638;29;20439;-70
2023/07/11 10:26:21;;;;;;;3.67;2.40;;;27.50;90.80;;;;;;4915303;29;20074;-68
2023/07/11 10:29:14;;;;;;;7.40;3.00;;;27.60;90.60;;;;;;4921408;29;20060;-68
2023/07/11 10:32:02;;;;;;;5.10;3.00;;;27.70;91.70;;;;;;4920349;29;20046;-69
2023/07/11 10:34:44;;;;;;;6.47;2.92;;;27.60;88.90;;;;;;4925084;29;20134;-69
2023/07/11 10:37:19;;;;;;;6.88;2.50;;;27.60;91.00;;;;;;4923097;29;20078;-68
2023/07/11 10:39:51;;;;;;;4.30;2.80;;;27.60;91.20;;;;;;4921723;29;20037;-68
2023/07/11 10:42:28;;;;;;;4.70;2.63;;;27.70;90.80;;;;;;4930998;29;20036;-68
2023/07/11 10:45:07;;;;;;;4.85;2.42;;;27.70;90.00;;;;;;4926620;29;20055;-68
2023/07/11 10:47:38;;;;;;;4.35;2.70;;;27.70;91.20;;;;;;4933955;29;20085;-68
2023/07/11 10:50:09;;;;;;;;;;;27.70;91.30;;;;;;4921118;29;20505;-68
2023/07/11 10:52:35;;;;;;;;;;;27.90;91.80;;;;;;4914362;29;20062;-68
2023/07/11 10:55:17;;;;;;;7.18;2.97;;;28.00;90.90;;;;;;4921052;29;20396;-69
2023/07/11 10:57:48;;;;;;;4.95;2.80;;;28.10;91.00;;;;;;4922667;29;20118;-68
2023/07/11 11:00:42;;;;;;;5.28;3.10;;;28.30;91.70;;;;;;4930434;29;20093;-68
2023/07/11 11:03:14;;;;;;;6.88;2.85;;;28.50;93.50;;;;;;4926503;29;20106;-69
2023/07/11 11:06:18;;;;;;;11.80;3.10;;;28.30;92.40;;;;;;4930659;29;20039;-69
2023/07/11 11:09:10;;;;;;;7.53;2.85;;;28.10;91.00;;;;;;4910688;29;20039;-69
2023/07/11 11:12:18;;;;;;;4.45;2.80;;;28.30;90.50;;;;;;4916427;29;20048;-70
2023/07/11 11:14:51;;;;;;;6.85;2.80;;;28.20;90.90;;;;;;4900561;29;20159;-69
2023/07/11 11:17:44;;;;;;;5.72;2.88;;;27.70;90.20;;;;;;4931891;29;20054;-69
2023/07/11 11:20:27;;;;;;;11.43;2.88;;;27.90;91.60;;;;;;4936170;29;20044;-69
2023/07/11 11:23:24;;;;;;;5.32;2.90;;;28.10;90.60;;;;;;4939185;29;20712;-69
2023/07/11 11:26:20;;;;;;;4.50;2.45;;;28.20;90.80;;;;;;4926043;29;20098;-69
2023/07/11 11:28:58;;;;;;;6.18;2.92;;;28.30;90.50;;;;;;4935804;29;20043;-66
2023/07/11 11:31:29;;;;;;;6.03;2.70;;;28.40;90.90;;;;;;4924984;29;20055;-68
2023/07/11 11:34:19;;;;;;;10.38;3.20;;;28.50;91.10;;;;;;4928213;29;20126;-68
2023/07/11 11:36:47;;;;;;;6.20;2.63;;;28.50;90.10;;;;;;4914857;29;20056;-68
2023/07/11 11:39:28;;;;;;;5.15;2.40;;;28.50;91.00;;;;;;4915521;29;20108;-69
2023/07/11 11:42:01;;;;;;;5.57;2.70;;;28.60;90.40;;;;;;4943003;28;20035;-69
2023/07/11 11:44:41;;;;;;;4.45;2.47;;;28.60;91.90;;;;;;4953451;28;20094;-69
2023/07/11 11:47:09;;;;;;;7.63;2.70;;;28.70;90.30;;;;;;4930594;29;20499;-69
2023/07/11 11:49:36;;;;;;;4.90;2.60;;;28.60;90.30;;;;;;4929508;29;20295;-68
2023/07/11 11:52:02;;;;;;;6.05;2.40;;;28.60;90.60;;;;;;4933026;29;20123;-68
2023/07/11 11:54:41;;;;;;;4.90;2.60;;;28.60;90.50;;;;;;4930986;29;20039;-66
2023/07/11 11:57:19;;;;;;;5.90;2.50;;;28.30;89.00;;;;;;4926742;29;20051;-68
2023/07/11 11:59:45;;;;;;;3.83;2.25;;;28.00;90.30;;;;;;4926491;29;20043;-68
2023/07/11 12:02:16;;;;;;;6.28;2.65;;;27.90;90.90;;;;;;4931928;29;20159;-68
2023/07/11 12:04:59;;;;;;;6.60;2.60;;;28.30;91.20;;;;;;4917563;29;20179;-69
2023/07/11 12:07:45;;;;;;;7.60;2.90;;;28.30;90.40;;;;;;4932515;29;20059;-69
2023/07/11 12:10:16;;;;;;;5.70;2.58;;;28.10;90.70;;;;;;4932811;29;20060;-68
2023/07/11 12:12:41;;;;;;;;;;;28.20;91.50;;;;;;4930156;29;20118;-68
2023/07/11 12:15:13;;;;;;;4.45;2.42;;;28.20;89.70;;;;;;4933795;29;20013;-68
2023/07/11 12:17:38;;;;;;;6.72;2.25;;;28.20;88.60;;;;;;4926551;29;20473;-69
2023/07/11 12:20:10;;;;;;;5.57;2.42;;;28.70;91.30;;;;;;4924469;29;20559;-69
2023/07/11 12:22:39;;;;;;;5.40;2.60;;;29.00;87.00;;;;;;4925160;29;20036;-69
2023/07/11 12:25:23;;;;;;;5.07;2.50;;;29.40;86.80;;;;;;4932716;29;20052;-68
2023/07/11 12:28:02;;;;;;;4.65;2.35;;;29.40;84.10;;;;;;4925372;29;20036;-69
2023/07/11 12:30:27;;;;;;;5.35;2.35;;;29.40;84.80;;;;;;4928868;29;20090;-68
2023/07/11 12:32:54;;;;;;;4.88;2.40;;;29.10;86.30;;;;;;4927328;29;20079;-69
2023/07/11 12:35:25;;;;;;;3.92;2.42;;;29.20;86.90;;;;;;4932905;29;20052;-69
2023/07/11 12:37:57;;;;;;;5.80;2.58;;;29.50;83.60;;;;;;4931273;29;20054;-69
2023/07/11 12:40:39;;;;;;;6.10;2.55;;;29.50;81.70;;;;;;4932178;29;20051;-68
2023/07/11 12:43:19;;;;;;;4.75;2.50;;;29.30;82.40;;;;;;4933103;29;20039;-69
2023/07/11 12:45:52;;;;;;;4.07;2.28;;;29.10;82.20;;;;;;4920159;29;20046;-68
2023/07/11 12:48:22;;;;;;;4.07;2.30;;;29.10;82.60;;;;;;4930000;29;20079;-69
2023/07/11 12:50:50;;;;;;;5.15;2.90;;;29.20;80.80;;;;;;4934093;29;20487;-69
2023/07/11 12:53:16;;;;;;;3.83;2.60;;;29.20;78.60;;;;;;4922032;29;20503;-67